Time,TemperatureF,DewpointF,PressureIn,WindDirection,WindDirectionDegrees,WindSpeedMPH,WindSpeedGustMPH,Humidity,HourlyPrecipIn,Conditions,Clouds,dailyrainin,SolarRadiationWatts/m^2,SoftwareType,DateUTC
2013-11-24 00:09:00,17.9,14.0,30.45,ESE,110,4.0,5.0,84,0.00,,,0.00,11,weatherlink.com 1.10,2013-11-24 07:09:00,
2013-11-24 00:24:00,18.4,15.0,30.44,ESE,109,0.0,1.0,85,0.00,,,0.00,46,weatherlink.com 1.10,2013-11-24 07:24:00,
2013-11-24 00:39:00,19.1,15.0,30.44,ESE,109,2.0,3.0,85,0.00,,,0.00,37,weatherlink.com 1.10,2013-11-24 07:39:00,
2013-11-24 00:54:00,18.6,15.0,30.43,ESE,110,3.0,3.0,84,0.00,,,0.00,11,weatherlink.com 1.10,2013-11-24 07:54:00,
2013-11-24 01:09:00,18.8,15.0,30.43,ESE,110,4.0,5.0,83,0.00,,,0.00,25,weatherlink.com 1.10,2013-11-24 08:09:00,
2013-11-24 01:24:00,18.5,14.0,30.44,WNW,285,5.0,6.0,83,0.00,,,0.00,25,weatherlink.com 1.10,2013-11-24 08:24:00,
2013-11-24 01:39:00,17.6,14.0,30.44,West,275,4.0,5.0,86,0.00,,,0.00,11,weatherlink.com 1.10,2013-11-24 08:39:00,
2013-11-24 01:54:00,17.2,14.0,30.45,West,275,3.0,3.0,88,0.00,,,0.00,53,weatherlink.com 1.10,2013-11-24 08:54:00,
2013-11-24 02:09:00,15.7,12.0,30.46,WSW,247,5.0,7.0,85,0.00,,,0.00,7,weatherlink.com 1.10,2013-11-24 09:09:00,
2013-11-24 02:24:00,14.8,11.0,30.47,WSW,251,1.0,4.0,86,0.00,,,0.00,47,weatherlink.com 1.10,2013-11-24 09:24:00,
2013-11-24 02:39:00,15.0,12.0,30.47,WSW,251,1.0,3.0,87,0.00,,,0.00,62,weatherlink.com 1.10,2013-11-24 09:39:00,
2013-11-24 02:54:00,15.5,13.0,30.46,WSW,251,3.0,4.0,89,0.00,,,0.00,0,weatherlink.com 1.10,2013-11-24 09:54:00,
2013-11-24 03:09:00,16.7,14.0,30.45,East,96,6.0,8.0,88,0.00,,,0.00,32,weatherlink.com 1.10,2013-11-24 10:09:00,
2013-11-24 03:24:00,16.3,13.0,30.45,ESE,118,2.0,7.0,88,0.00,,,0.00,60,weatherlink.com 1.10,2013-11-24 10:24:00,
2013-11-24 03:39:00,16.2,13.0,30.45,ESE,118,2.0,4.0,87,0.00,,,0.00,32,weatherlink.com 1.10,2013-11-24 10:39:00,
2013-11-24 03:54:00,16.0,13.0,30.44,East,89,3.0,6.0,87,0.00,,,0.00,0,weatherlink.com 1.10,2013-11-24 10:54:00,
2013-11-24 04:09:00,16.1,13.0,30.44,East,89,3.0,5.0,87,0.00,,,0.00,32,weatherlink.com 1.10,2013-11-24 11:09:00,
2013-11-24 04:24:00,16.3,13.0,30.43,East,89,3.0,5.0,86,0.00,,,0.00,0,weatherlink.com 1.10,2013-11-24 11:24:00,
2013-11-24 04:39:00,15.9,13.0,30.43,East,89,5.0,6.0,87,0.00,,,0.00,32,weatherlink.com 1.10,2013-11-24 11:39:00,
2013-11-24 04:54:00,16.0,13.0,30.43,East,89,0.0,2.0,88,0.00,,,0.00,0,weatherlink.com 1.10,2013-11-24 11:54:00,
2013-11-24 05:09:00,16.1,13.0,30.42,East,89,0.0,2.0,88,0.00,,,0.00,30,weatherlink.com 1.10,2013-11-24 12:09:00,
2013-11-24 05:24:00,16.5,14.0,30.41,East,89,2.0,3.0,89,0.00,,,0.00,0,weatherlink.com 1.10,2013-11-24 12:24:00,
2013-11-24 05:39:00,16.9,14.0,30.41,East,89,0.0,3.0,88,0.00,,,0.00,42,weatherlink.com 1.10,2013-11-24 12:39:00,
2013-11-24 05:54:00,16.9,13.0,30.41,NNE,14,3.0,6.0,86,0.00,,,0.00,0,weatherlink.com 1.10,2013-11-24 12:54:00,
2013-11-24 06:09:00,17.1,14.0,30.40,NNE,15,0.0,2.0,86,0.00,,,0.00,42,weatherlink.com 1.10,2013-11-24 13:09:00,
2013-11-24 06:24:00,17.2,14.0,30.40,NNE,15,0.0,0.0,86,0.00,,,0.00,9,weatherlink.com 1.10,2013-11-24 13:24:00,
2013-11-24 06:39:00,17.4,14.0,30.40,NNE,14,0.0,5.0,87,0.00,,,0.00,42,weatherlink.com 1.10,2013-11-24 13:39:00,
2013-11-24 06:54:00,17.3,14.0,30.39,NNE,14,2.0,3.0,87,0.00,,,0.00,0,weatherlink.com 1.10,2013-11-24 13:54:00,
2013-11-24 07:09:00,17.2,14.0,30.41,West,264,8.0,9.0,87,0.00,,,0.00,46,weatherlink.com 1.10,2013-11-24 14:09:00,
2013-11-24 07:24:00,14.8,11.0,30.42,West,275,6.0,10.0,86,0.00,,,0.00,5,weatherlink.com 1.10,2013-11-24 14:24:00,
2013-11-24 07:39:00,14.3,11.0,30.43,WSW,248,4.0,8.0,87,0.00,,,0.00,0,weatherlink.com 1.10,2013-11-24 14:39:00,
2013-11-24 07:54:00,14.1,11.0,30.43,WSW,249,2.0,4.0,88,0.00,,,0.00,0,weatherlink.com 1.10,2013-11-24 14:54:00,
2013-11-24 08:09:00,14.5,12.0,30.42,WSW,248,2.0,3.0,88,0.00,,,0.00,0,weatherlink.com 1.10,2013-11-24 15:09:00,
2013-11-24 08:24:00,15.1,12.0,30.42,SE,125,4.0,6.0,88,0.00,,,0.00,0,weatherlink.com 1.10,2013-11-24 15:24:00,
2013-11-24 08:39:00,15.8,13.0,30.43,SE,127,2.0,5.0,87,0.00,,,0.00,0,weatherlink.com 1.10,2013-11-24 15:39:00,
2013-11-24 08:54:00,16.2,13.0,30.43,SE,127,1.0,2.0,87,0.00,,,0.00,0,weatherlink.com 1.10,2013-11-24 15:54:00,
2013-11-24 09:09:00,16.7,13.0,30.43,SE,127,0.0,1.0,86,0.00,,,0.00,0,weatherlink.com 1.10,2013-11-24 16:09:00,
2013-11-24 09:24:00,17.8,15.0,30.43,SE,127,0.0,1.0,87,0.00,,,0.00,0,weatherlink.com 1.10,2013-11-24 16:24:00,
2013-11-24 09:40:00,19.7,16.0,30.43,SE,127,2.0,3.0,84,0.00,,,0.00,0,weatherlink.com 1.10,2013-11-24 16:40:00,
2013-11-24 09:55:00,20.8,16.0,30.43,SE,127,1.0,2.0,83,0.00,,,0.00,0,weatherlink.com 1.10,2013-11-24 16:55:00,
2013-11-24 10:10:00,22.2,17.0,30.43,SE,127,0.0,2.0,81,0.00,,,0.00,0,weatherlink.com 1.10,2013-11-24 17:10:00,
2013-11-24 10:25:00,22.6,18.0,30.43,SE,127,0.0,1.0,81,0.00,,,0.00,0,weatherlink.com 1.10,2013-11-24 17:25:00,
2013-11-24 10:40:00,23.1,18.0,30.43,SE,127,3.0,3.0,80,0.00,,,0.00,0,weatherlink.com 1.10,2013-11-24 17:40:00,
2013-11-24 10:55:00,23.9,18.0,30.41,ESE,120,3.0,4.0,78,0.00,,,0.00,0,weatherlink.com 1.10,2013-11-24 17:55:00,
2013-11-24 11:10:00,24.9,18.0,30.40,East,80,2.0,5.0,75,0.00,,,0.00,0,weatherlink.com 1.10,2013-11-24 18:10:00,
2013-11-24 11:25:00,25.7,18.0,30.39,East,80,0.0,4.0,73,0.00,,,0.00,0,weatherlink.com 1.10,2013-11-24 18:25:00,
2013-11-24 11:40:00,27.7,19.0,30.39,East,80,1.0,2.0,69,0.00,,,0.00,0,weatherlink.com 1.10,2013-11-24 18:40:00,
2013-11-24 11:55:00,29.4,19.0,30.38,East,79,3.0,3.0,65,0.00,,,0.00,0,weatherlink.com 1.10,2013-11-24 18:55:00,
2013-11-24 12:10:00,30.0,18.0,30.37,East,79,2.0,4.0,62,0.00,,,0.00,0,weatherlink.com 1.10,2013-11-24 19:10:00,
2013-11-24 12:25:00,31.0,18.0,30.36,ENE,78,4.0,4.0,60,0.00,,,0.00,0,weatherlink.com 1.10,2013-11-24 19:25:00,
2013-11-24 12:40:00,32.4,20.0,30.36,NNW,329,3.0,5.0,61,0.00,,,0.00,0,weatherlink.com 1.10,2013-11-24 19:40:00,
2013-11-24 12:55:00,33.5,21.0,30.36,WNW,293,4.0,7.0,60,0.00,,,0.00,0,weatherlink.com 1.10,2013-11-24 19:55:00,
2013-11-24 13:10:00,34.4,20.0,30.35,West,270,3.0,4.0,57,0.00,,,0.00,0,weatherlink.com 1.10,2013-11-24 20:10:00,
2013-11-24 13:25:00,34.9,20.0,30.35,WSW,243,6.0,7.0,56,0.00,,,0.00,0,weatherlink.com 1.10,2013-11-24 20:25:00,
2013-11-24 13:40:00,35.6,20.0,30.35,WSW,247,6.0,8.0,53,0.00,,,0.00,0,weatherlink.com 1.10,2013-11-24 20:40:00,
2013-11-24 13:55:00,36.4,21.0,30.34,West,275,6.0,8.0,53,0.00,,,0.00,0,weatherlink.com 1.10,2013-11-24 20:55:00,
2013-11-24 14:10:00,36.5,20.0,30.34,West,267,8.0,10.0,52,0.00,,,0.00,0,weatherlink.com 1.10,2013-11-24 21:10:00,
2013-11-24 14:25:00,35.7,21.0,30.35,West,259,12.0,12.0,56,0.00,,,0.00,0,weatherlink.com 1.10,2013-11-24 21:25:00,
2013-11-24 14:40:00,34.6,19.0,30.35,West,275,9.0,12.0,54,0.00,,,0.00,0,weatherlink.com 1.10,2013-11-24 21:40:00,
2013-11-24 14:55:00,34.3,20.0,30.35,WSW,243,7.0,9.0,57,0.00,,,0.00,0,weatherlink.com 1.10,2013-11-24 21:55:00,
2013-11-24 15:10:00,34.5,20.0,30.34,SW,224,4.0,7.0,55,0.00,,,0.00,0,weatherlink.com 1.10,2013-11-24 22:10:00,
2013-11-24 15:25:00,35.5,20.0,30.35,SW,224,2.0,5.0,53,0.00,,,0.00,0,weatherlink.com 1.10,2013-11-24 22:25:00,
2013-11-24 15:40:00,36.6,22.0,30.36,SW,224,2.0,4.0,57,0.00,,,0.00,0,weatherlink.com 1.10,2013-11-24 22:40:00,
2013-11-24 15:55:00,36.6,19.0,30.35,SW,224,1.0,3.0,50,0.00,,,0.00,0,weatherlink.com 1.10,2013-11-24 22:55:00,
2013-11-24 16:11:00,37.4,20.0,30.36,SW,224,0.0,1.0,49,0.00,,,0.00,0,weatherlink.com 1.10,2013-11-24 23:11:00,
2013-11-24 16:26:00,38.3,20.0,30.36,SW,224,0.0,2.0,47,0.00,,,0.00,0,weatherlink.com 1.10,2013-11-24 23:26:00,
2013-11-24 16:41:00,37.0,19.0,30.36,NW,308,4.0,4.0,48,0.00,,,0.00,0,weatherlink.com 1.10,2013-11-24 23:41:00,
2013-11-24 16:56:00,35.0,19.0,30.37,NW,311,2.0,3.0,53,0.00,,,0.00,44,weatherlink.com 1.10,2013-11-24 23:56:00,
2013-11-24 17:11:00,34.1,19.0,30.37,NW,311,2.0,4.0,54,0.00,,,0.00,58,weatherlink.com 1.10,2013-11-25 00:11:00,
2013-11-24 17:26:00,33.9,19.0,30.37,NW,311,3.0,4.0,54,0.00,,,0.00,14,weatherlink.com 1.10,2013-11-25 00:26:00,
2013-11-24 17:41:00,32.8,19.0,30.37,ESE,110,4.0,7.0,56,0.00,,,0.00,67,weatherlink.com 1.10,2013-11-25 00:41:00,
2013-11-24 17:56:00,30.2,18.0,30.38,ESE,107,7.0,10.0,60,0.00,,,0.00,62,weatherlink.com 1.10,2013-11-25 00:56:00,
2013-11-24 18:11:00,29.3,18.0,30.38,East,90,4.0,9.0,62,0.00,,,0.00,37,weatherlink.com 1.10,2013-11-25 01:11:00,
2013-11-24 18:26:00,29.9,20.0,30.39,East,90,0.0,4.0,67,0.00,,,0.00,39,weatherlink.com 1.10,2013-11-25 01:26:00,
2013-11-24 18:41:00,30.0,20.0,30.38,ESE,102,4.0,6.0,67,0.00,,,0.00,9,weatherlink.com 1.10,2013-11-25 01:41:00,
2013-11-24 18:56:00,29.8,20.0,30.38,ESE,102,3.0,6.0,68,0.00,,,0.00,9,weatherlink.com 1.10,2013-11-25 01:56:00,
2013-11-24 19:11:00,30.2,22.0,30.38,ESE,102,4.0,4.0,70,0.00,,,0.00,62,weatherlink.com 1.10,2013-11-25 02:11:00,
2013-11-24 19:26:00,29.9,21.0,30.38,ESE,102,0.0,4.0,69,0.00,,,0.00,60,weatherlink.com 1.10,2013-11-25 02:26:00,
2013-11-24 19:41:00,30.2,21.0,30.38,ESE,102,3.0,5.0,69,0.00,,,0.00,62,weatherlink.com 1.10,2013-11-25 02:41:00,
2013-11-24 19:56:00,30.5,21.0,30.38,ESE,102,6.0,7.0,69,0.00,,,0.00,40,weatherlink.com 1.10,2013-11-25 02:56:00,
2013-11-24 20:11:00,30.8,21.0,30.38,ESE,102,5.0,6.0,68,0.00,,,0.00,40,weatherlink.com 1.10,2013-11-25 03:11:00,
2013-11-24 20:26:00,31.2,22.0,30.39,ESE,102,1.0,5.0,69,0.00,,,0.00,12,weatherlink.com 1.10,2013-11-25 03:26:00,
2013-11-24 20:41:00,31.3,22.0,30.39,ESE,102,0.0,3.0,69,0.00,,,0.00,12,weatherlink.com 1.10,2013-11-25 03:41:00,
2013-11-24 20:56:00,31.5,21.0,30.39,East,100,2.0,3.0,65,0.00,,,0.00,65,weatherlink.com 1.10,2013-11-25 03:56:00,
2013-11-24 21:11:00,31.7,21.0,30.39,East,100,1.0,2.0,66,0.00,,,0.00,67,weatherlink.com 1.10,2013-11-25 04:11:00,
2013-11-24 21:26:00,32.0,22.0,30.40,SSE,155,3.0,6.0,66,0.00,,,0.00,67,weatherlink.com 1.10,2013-11-25 04:26:00,
2013-11-24 21:41:00,32.1,23.0,30.39,SSE,155,1.0,2.0,68,0.00,,,0.00,44,weatherlink.com 1.10,2013-11-25 04:41:00,
2013-11-24 21:56:00,32.1,24.0,30.40,SSE,155,1.0,2.0,72,0.00,,,0.00,44,weatherlink.com 1.10,2013-11-25 04:56:00,
2013-11-24 22:11:00,31.9,23.0,30.39,SSE,155,1.0,2.0,70,0.00,,,0.00,12,weatherlink.com 1.10,2013-11-25 05:11:00,
2013-11-24 22:26:00,31.9,21.0,30.40,SSE,155,0.0,4.0,64,0.00,,,0.00,12,weatherlink.com 1.10,2013-11-25 05:26:00,
2013-11-24 22:41:00,32.3,22.0,30.39,SSE,155,3.0,5.0,65,0.00,,,0.00,69,weatherlink.com 1.10,2013-11-25 05:41:00,
2013-11-24 22:56:00,32.4,24.0,30.40,SSW,206,3.0,5.0,72,0.00,,,0.00,69,weatherlink.com 1.10,2013-11-25 05:56:00,
2013-11-24 23:11:00,32.3,23.0,30.39,SSW,208,1.0,2.0,68,0.00,,,0.00,69,weatherlink.com 1.10,2013-11-25 06:11:00,
2013-11-24 23:26:00,32.5,21.0,30.39,SSE,163,2.0,3.0,64,0.00,,,0.00,46,weatherlink.com 1.10,2013-11-25 06:26:00,
2013-11-24 23:41:00,32.2,24.0,30.39,SE,139,3.0,7.0,71,0.00,,,0.00,46,weatherlink.com 1.10,2013-11-25 06:41:00,
2013-11-24 23:56:00,32.2,24.0,30.39,ENE,62,3.0,7.0,73,0.00,,,0.00,14,weatherlink.com 1.10,2013-11-25 06:56:00,